createdAt,value
2017-05-22T00:00:34.175Z,19.60
2017-05-22T00:03:02.635Z,19.60
2017-05-22T00:05:30.952Z,19.60
2017-05-22T00:07:59.260Z,19.60
2017-05-22T00:10:27.586Z,19.60
2017-05-22T00:12:55.882Z,19.60
2017-05-22T00:15:24.185Z,19.60
2017-05-22T00:17:52.496Z,19.60
2017-05-22T00:20:20.890Z,19.60
2017-05-22T00:22:49.239Z,19.60
2017-05-22T00:25:17.768Z,19.50
2017-05-22T00:27:46.071Z,19.50
2017-05-22T00:30:14.373Z,19.60
2017-05-22T00:32:42.694Z,19.50
2017-05-22T00:35:10.975Z,19.50
2017-05-22T00:37:39.317Z,19.50
2017-05-22T00:40:07.702Z,19.50
2017-05-22T00:42:36.022Z,19.50
2017-05-22T00:45:04.319Z,19.50
2017-05-22T00:47:32.622Z,19.50
2017-05-22T00:50:01.015Z,19.50
2017-05-22T00:52:29.303Z,19.50
2017-05-22T00:54:57.600Z,19.50
2017-05-22T00:57:26.253Z,19.50
2017-05-22T00:59:54.731Z,19.50
2017-05-22T01:02:23.216Z,19.50
2017-05-22T01:04:51.585Z,19.50
2017-05-22T01:07:19.859Z,19.50
2017-05-22T01:09:48.158Z,19.50
2017-05-22T01:12:16.465Z,19.50
2017-05-22T01:14:44.802Z,19.50
2017-05-22T01:17:13.481Z,19.50
2017-05-22T01:19:41.769Z,19.50
2017-05-22T01:22:10.240Z,19.50
2017-05-22T01:24:38.557Z,19.50
2017-05-22T01:27:06.852Z,19.50
2017-05-22T01:29:35.151Z,19.50
2017-05-22T01:32:03.435Z,19.50
2017-05-22T01:34:31.728Z,19.50
2017-05-22T01:37:00.099Z,19.50
2017-05-22T01:39:28.585Z,19.40
2017-05-22T01:41:56.939Z,19.50
2017-05-22T01:44:25.245Z,19.40
2017-05-22T01:46:53.543Z,19.40
2017-05-22T01:49:21.851Z,19.40
2017-05-22T01:51:50.149Z,19.40
2017-05-22T01:54:18.438Z,19.40
2017-05-22T01:56:46.911Z,19.40
2017-05-22T01:59:15.191Z,19.40
2017-05-22T02:01:43.496Z,19.40
2017-05-22T02:04:11.830Z,19.40
2017-05-22T02:06:40.112Z,19.40
2017-05-22T02:09:08.509Z,19.40
2017-05-22T02:11:36.855Z,19.40
2017-05-22T02:14:05.254Z,19.40
2017-05-22T02:16:33.551Z,19.40
2017-05-22T02:19:02.021Z,19.40
2017-05-22T02:21:30.343Z,19.40
2017-05-22T02:23:58.778Z,19.40
2017-05-22T02:26:27.070Z,19.40
2017-05-22T02:28:55.534Z,19.40
2017-05-22T02:31:23.837Z,19.40
2017-05-22T02:33:51.369Z,19.40
2017-05-22T02:36:19.681Z,19.40
2017-05-22T02:38:47.977Z,19.40
2017-05-22T02:41:16.509Z,19.40
2017-05-22T02:43:44.815Z,19.40
2017-05-22T02:46:13.266Z,19.40
2017-05-22T02:48:41.611Z,19.40
2017-05-22T02:51:09.904Z,19.40
2017-05-22T02:53:38.200Z,19.40
2017-05-22T02:56:06.491Z,19.40
2017-05-22T02:58:34.946Z,19.40
2017-05-22T03:01:03.311Z,19.40
2017-05-22T03:03:31.621Z,19.30
2017-05-22T03:06:00.091Z,19.40
2017-05-22T03:08:28.567Z,19.40
2017-05-22T03:10:56.959Z,19.40
2017-05-22T03:13:25.316Z,19.30
2017-05-22T03:15:53.698Z,19.30
2017-05-22T03:18:22.000Z,19.40
2017-05-22T03:20:50.353Z,19.30
2017-05-22T03:23:18.838Z,19.30
2017-05-22T03:25:47.144Z,19.30
2017-05-22T03:28:15.439Z,19.30
2017-05-22T03:30:43.746Z,19.30
2017-05-22T03:33:12.152Z,19.30
2017-05-22T03:35:40.448Z,19.30
2017-05-22T03:38:08.747Z,19.30
2017-05-22T03:40:37.027Z,19.30
2017-05-22T03:43:05.335Z,19.30
2017-05-22T03:45:33.620Z,19.30
2017-05-22T03:48:01.929Z,19.30
2017-05-22T03:50:30.212Z,19.30
2017-05-22T03:52:58.588Z,19.30
2017-05-22T03:55:26.880Z,19.30
2017-05-22T03:57:55.533Z,19.30
2017-05-22T04:00:23.872Z,19.30
2017-05-22T04:02:52.165Z,19.30
2017-05-22T04:05:20.484Z,19.30
2017-05-22T04:07:48.830Z,19.30
2017-05-22T04:10:17.315Z,19.30
2017-05-22T04:12:45.623Z,19.30
2017-05-22T04:15:13.937Z,19.30
2017-05-22T04:17:42.223Z,19.30
2017-05-22T04:20:10.515Z,19.30
2017-05-22T04:22:38.901Z,19.30
2017-05-22T04:25:07.379Z,19.30
2017-05-22T04:27:35.861Z,19.30
2017-05-22T04:30:04.152Z,19.30
2017-05-22T04:32:32.623Z,19.30
2017-05-22T04:35:00.929Z,19.30
2017-05-22T04:37:29.578Z,19.30
2017-05-22T04:39:57.944Z,19.30
2017-05-22T04:42:26.246Z,19.30
2017-05-22T04:44:54.558Z,19.30
2017-05-22T04:47:22.830Z,19.30
2017-05-22T04:49:51.138Z,19.30
2017-05-22T04:52:19.578Z,19.30
2017-05-22T04:54:47.889Z,19.30
2017-05-22T04:57:16.293Z,19.30
2017-05-22T04:59:44.669Z,19.30
2017-05-22T05:02:13.003Z,19.30
2017-05-22T05:04:41.331Z,19.30
2017-05-22T05:07:09.631Z,19.30
2017-05-22T05:09:38.196Z,19.30
2017-05-22T05:12:06.491Z,19.30
2017-05-22T05:14:34.797Z,19.30
2017-05-22T05:17:03.212Z,19.30
2017-05-22T05:19:31.496Z,19.30
2017-05-22T05:21:59.799Z,19.30
2017-05-22T05:24:27.328Z,19.30
2017-05-22T05:26:55.632Z,19.30
2017-05-22T05:29:24.015Z,19.30
2017-05-22T05:31:52.327Z,19.30
2017-05-22T05:34:20.615Z,19.30
2017-05-22T05:36:49.028Z,19.30
2017-05-22T05:39:17.362Z,19.30
2017-05-22T05:41:45.657Z,19.30
2017-05-22T05:44:14.066Z,19.30
2017-05-22T05:46:42.380Z,19.30
2017-05-22T05:49:10.688Z,19.30
2017-05-22T05:51:38.973Z,19.30
2017-05-22T05:54:07.267Z,19.30
2017-05-22T05:56:35.837Z,19.30
2017-05-22T05:59:04.140Z,19.30
2017-05-22T06:01:32.419Z,19.30
2017-05-22T06:04:00.747Z,19.40
2017-05-22T06:06:29.042Z,19.40
2017-05-22T06:08:57.362Z,19.40
2017-05-22T06:11:25.679Z,19.40
2017-05-22T06:13:53.968Z,19.40
2017-05-22T06:16:22.710Z,19.40
2017-05-22T06:18:51.016Z,19.40
2017-05-22T06:21:19.333Z,19.40
2017-05-22T06:23:47.631Z,19.40
2017-05-22T06:26:16.189Z,19.40
2017-05-22T06:28:44.487Z,19.40
2017-05-22T06:31:12.788Z,19.40
2017-05-22T06:33:41.091Z,19.40
2017-05-22T06:36:09.497Z,19.40
2017-05-22T06:38:37.789Z,19.40
2017-05-22T06:41:06.469Z,19.40
2017-05-22T06:43:34.754Z,19.40
2017-05-22T06:46:03.041Z,19.40
2017-05-22T06:48:31.351Z,19.40
2017-05-22T06:50:59.656Z,19.40
2017-05-22T06:53:27.971Z,19.40
2017-05-22T06:55:56.260Z,19.40
2017-05-22T06:58:24.774Z,19.40
2017-05-22T07:00:53.062Z,19.40
2017-05-22T07:03:21.356Z,19.40
2017-05-22T07:05:49.669Z,19.40
2017-05-22T07:08:17.999Z,19.40
2017-05-22T07:10:46.321Z,19.40
2017-05-22T07:13:14.628Z,19.40
2017-05-22T07:15:42.924Z,19.40
2017-05-22T07:18:11.213Z,19.40
2017-05-22T07:20:39.588Z,19.50
2017-05-22T07:23:07.973Z,19.50
2017-05-22T07:25:36.581Z,19.50
2017-05-22T07:28:04.871Z,19.50
2017-05-22T07:30:33.190Z,19.50
2017-05-22T07:33:01.492Z,19.50
2017-05-22T07:35:29.784Z,19.50
2017-05-22T07:37:58.088Z,19.50
2017-05-22T07:40:26.377Z,19.50
2017-05-22T07:42:54.799Z,19.50
2017-05-22T07:45:23.093Z,19.50
2017-05-22T07:47:51.406Z,19.50
2017-05-22T07:50:19.695Z,19.50
2017-05-22T07:52:47.990Z,19.50
2017-05-22T07:55:16.282Z,19.50
2017-05-22T07:57:44.847Z,19.50
2017-05-22T08:00:13.149Z,19.50
2017-05-22T08:02:41.452Z,19.50
2017-05-22T08:05:09.757Z,19.50
2017-05-22T08:07:38.035Z,19.50
2017-05-22T08:10:06.428Z,19.50
2017-05-22T08:12:34.728Z,19.50
2017-05-22T08:15:03.027Z,19.50
2017-05-22T08:17:31.471Z,19.50
2017-05-22T08:19:59.954Z,19.50
2017-05-22T08:22:28.281Z,19.50
2017-05-22T08:24:56.704Z,19.50
2017-05-22T08:27:25.018Z,19.50
2017-05-22T08:29:53.467Z,19.60
2017-05-22T08:32:21.771Z,19.60
2017-05-22T08:34:50.086Z,19.60
2017-05-22T08:37:18.700Z,19.60
2017-05-22T08:39:46.998Z,19.60
2017-05-22T08:42:15.318Z,19.50
2017-05-22T08:44:43.641Z,19.60
2017-05-22T08:47:11.936Z,19.60
2017-05-22T08:49:40.245Z,19.60
2017-05-22T08:52:08.556Z,19.60
2017-05-22T08:54:36.881Z,19.60
2017-05-22T08:57:05.185Z,19.60
2017-05-22T08:59:33.799Z,19.60
2017-05-22T09:02:02.089Z,19.60
2017-05-22T09:04:30.377Z,19.60
2017-05-22T09:06:58.688Z,19.60
2017-05-22T09:09:26.980Z,19.60
2017-05-22T09:11:55.393Z,19.60
2017-05-22T09:14:23.712Z,19.60
2017-05-22T09:16:52.057Z,19.60
2017-05-22T09:19:20.425Z,19.60
2017-05-22T09:21:48.912Z,19.60
2017-05-22T09:24:17.204Z,19.60
2017-05-22T09:26:45.850Z,19.60
2017-05-22T09:29:14.141Z,19.60
2017-05-22T09:31:42.505Z,19.60
2017-05-22T09:34:10.817Z,19.70
2017-05-22T09:36:39.117Z,19.70
2017-05-22T09:39:07.421Z,19.70
2017-05-22T09:41:35.719Z,19.60
2017-05-22T09:44:04.042Z,19.70
2017-05-22T09:46:32.342Z,19.70
2017-05-22T09:49:00.956Z,19.70
2017-05-22T09:51:29.249Z,19.70
2017-05-22T09:53:57.557Z,19.70
2017-05-22T09:56:25.860Z,19.70
2017-05-22T09:58:54.152Z,19.70
2017-05-22T10:01:22.452Z,19.70
2017-05-22T10:03:50.796Z,19.70
2017-05-22T10:06:19.213Z,19.70
2017-05-22T10:08:47.526Z,19.70
2017-05-22T10:11:15.849Z,19.70
2017-05-22T10:13:44.164Z,19.70
2017-05-22T10:16:12.463Z,19.70
2017-05-22T10:18:40.761Z,19.70
2017-05-22T10:21:09.354Z,19.70
2017-05-22T10:23:37.657Z,19.70
2017-05-22T10:26:06.140Z,19.70
2017-05-22T10:28:34.443Z,19.70
2017-05-22T10:31:02.749Z,19.70
2017-05-22T10:33:31.062Z,19.70
2017-05-22T10:35:59.647Z,19.70
2017-05-22T10:38:27.953Z,19.70
2017-05-22T10:40:56.251Z,19.70
2017-05-22T10:43:24.778Z,19.70
2017-05-22T10:45:53.177Z,19.70
2017-05-22T10:48:21.485Z,19.70
2017-05-22T10:50:49.839Z,19.70
2017-05-22T10:53:18.171Z,19.70
2017-05-22T10:55:46.471Z,19.70
2017-05-22T10:58:14.780Z,19.70
2017-05-22T11:00:43.126Z,19.70
2017-05-22T11:03:11.700Z,19.80
2017-05-22T11:05:40.021Z,19.80
2017-05-22T11:08:08.460Z,19.80
2017-05-22T11:10:36.778Z,19.70
2017-05-22T11:13:05.084Z,19.80
2017-05-22T11:15:33.474Z,19.80
2017-05-22T11:18:02.440Z,19.80
2017-05-22T11:20:30.753Z,19.80
2017-05-22T11:22:59.061Z,19.80
2017-05-22T11:25:27.406Z,19.80
2017-05-22T11:27:55.887Z,19.80
2017-05-22T11:30:24.264Z,19.80
2017-05-22T11:32:52.649Z,19.80
2017-05-22T11:35:20.953Z,19.80
2017-05-22T11:37:49.257Z,19.80
2017-05-22T11:40:17.577Z,19.80
2017-05-22T11:42:45.924Z,19.80
2017-05-22T11:45:14.249Z,19.80
2017-05-22T11:47:42.565Z,19.80
2017-05-22T11:50:11.514Z,19.80
2017-05-22T11:52:39.799Z,19.80
2017-05-22T11:55:08.100Z,19.80
2017-05-22T11:57:36.424Z,19.80
2017-05-22T12:00:04.740Z,19.80
2017-05-22T12:02:33.042Z,19.80
2017-05-22T12:05:01.355Z,19.80
2017-05-22T12:07:29.777Z,19.80
2017-05-22T12:09:58.093Z,19.80
2017-05-22T12:12:26.418Z,19.80
2017-05-22T12:14:54.974Z,19.80
2017-05-22T12:17:23.302Z,19.80
2017-05-22T12:19:51.598Z,19.80
2017-05-22T12:22:20.033Z,19.80
2017-05-22T12:24:47.553Z,19.80
2017-05-22T12:27:15.854Z,19.90
2017-05-22T12:29:44.166Z,19.90
2017-05-22T12:32:12.706Z,19.90
2017-05-22T12:34:41.001Z,19.90
2017-05-22T12:37:09.462Z,19.90
2017-05-22T12:39:37.773Z,19.90
2017-05-22T12:42:06.055Z,19.90
2017-05-22T12:44:34.495Z,19.90
2017-05-22T12:47:02.946Z,19.90
2017-05-22T12:49:31.258Z,19.90
2017-05-22T12:51:59.553Z,19.90
2017-05-22T12:54:27.876Z,19.90
2017-05-22T12:56:56.163Z,19.90
2017-05-22T12:59:24.570Z,19.90
2017-05-22T13:01:53.082Z,19.90
2017-05-22T13:04:21.592Z,19.90
2017-05-22T13:06:49.883Z,19.90
2017-05-22T13:09:18.169Z,19.90
2017-05-22T13:11:46.476Z,19.90
2017-05-22T13:14:14.770Z,19.90
2017-05-22T13:16:43.086Z,19.90
2017-05-22T13:19:11.377Z,19.90
2017-05-22T13:21:40.117Z,19.90
2017-05-22T13:24:08.450Z,19.90
2017-05-22T13:26:36.776Z,19.90
2017-05-22T13:29:05.062Z,19.90
2017-05-22T13:31:33.360Z,19.90
2017-05-22T13:34:01.775Z,19.90
2017-05-22T13:36:30.140Z,19.90
2017-05-22T13:38:58.457Z,19.90
2017-05-22T13:41:26.775Z,19.90
2017-05-22T13:43:55.080Z,19.90
2017-05-22T13:46:23.643Z,19.90
2017-05-22T13:48:52.116Z,19.90
2017-05-22T13:51:20.427Z,19.90
2017-05-22T13:53:48.941Z,19.90
2017-05-22T13:56:17.282Z,19.90
2017-05-22T13:58:45.856Z,19.90
2017-05-22T14:01:14.340Z,19.90
2017-05-22T14:03:41.978Z,19.90
2017-05-22T14:06:10.384Z,20.00
2017-05-22T14:08:38.760Z,20.00
2017-05-22T14:11:07.225Z,20.00
2017-05-22T14:13:35.533Z,20.00
2017-05-22T14:16:03.989Z,19.90
2017-05-22T14:18:32.465Z,20.00
2017-05-22T14:21:01.151Z,20.00
2017-05-22T14:23:29.459Z,20.00
2017-05-22T14:25:57.749Z,20.00
2017-05-22T14:28:26.191Z,20.00
2017-05-22T14:30:54.488Z,20.00
2017-05-22T14:33:22.039Z,20.00
2017-05-22T14:35:50.800Z,20.00
2017-05-22T14:38:19.098Z,20.00
2017-05-22T14:40:47.398Z,20.00
2017-05-22T14:43:15.704Z,20.00
2017-05-22T14:45:44.000Z,20.00
2017-05-22T14:48:12.307Z,20.00
2017-05-22T14:50:40.701Z,20.00
2017-05-22T14:53:09.346Z,20.00
2017-05-22T14:55:37.651Z,20.00
2017-05-22T14:58:05.959Z,20.00
2017-05-22T15:00:35.204Z,20.00
2017-05-22T15:03:03.489Z,20.00
2017-05-22T15:05:31.960Z,20.00
2017-05-22T15:08:00.745Z,20.00
2017-05-22T15:10:29.047Z,20.00
2017-05-22T15:12:57.333Z,20.00
2017-05-22T15:15:26.100Z,20.00
2017-05-22T15:17:54.572Z,20.00
2017-05-22T15:20:22.858Z,20.00
2017-05-22T15:22:51.327Z,20.00
2017-05-22T15:25:19.666Z,20.00
2017-05-22T15:27:47.962Z,20.00
2017-05-22T15:30:16.563Z,20.10
2017-05-22T15:32:44.907Z,20.00
2017-05-22T15:35:13.309Z,20.00
2017-05-22T15:37:41.801Z,20.00
2017-05-22T15:40:10.084Z,20.10
2017-05-22T15:42:38.397Z,20.00
2017-05-22T15:45:06.711Z,20.00
2017-05-22T15:47:35.246Z,20.10
2017-05-22T15:50:03.540Z,20.10
2017-05-22T15:52:31.833Z,20.00
2017-05-22T15:55:00.144Z,20.00
2017-05-22T15:57:28.503Z,20.00
2017-05-22T15:59:56.825Z,20.10
2017-05-22T16:02:25.120Z,20.10
2017-05-22T16:04:53.648Z,20.10
2017-05-22T16:07:22.134Z,20.10
2017-05-22T16:09:50.453Z,20.10
2017-05-22T16:12:18.761Z,20.10
2017-05-22T16:14:47.367Z,20.10
2017-05-22T16:17:15.690Z,20.10
2017-05-22T16:19:44.007Z,20.10
2017-05-22T16:22:12.453Z,20.10
2017-05-22T16:24:40.782Z,20.10
2017-05-22T16:27:09.154Z,20.20
2017-05-22T16:29:37.470Z,20.20
2017-05-22T16:32:05.805Z,20.20
2017-05-22T16:34:34.157Z,20.20
2017-05-22T16:37:02.492Z,20.20
2017-05-22T16:39:30.964Z,20.20
2017-05-22T16:41:59.273Z,20.20
2017-05-22T16:44:27.934Z,20.20
2017-05-22T16:46:56.240Z,20.20
2017-05-22T16:49:24.728Z,20.20
2017-05-22T16:51:53.408Z,20.20
2017-05-22T16:54:21.714Z,20.30
2017-05-22T16:56:50.011Z,20.30
2017-05-22T16:59:18.808Z,20.30
2017-05-22T17:01:47.516Z,20.30
2017-05-22T17:04:15.045Z,20.30
2017-05-22T17:06:43.439Z,20.40
2017-05-22T17:09:12.121Z,20.30
2017-05-22T17:11:39.668Z,20.30
2017-05-22T17:14:08.042Z,20.30
2017-05-22T17:16:36.734Z,20.40
2017-05-22T17:19:05.023Z,20.30
2017-05-22T17:21:33.334Z,20.30
2017-05-22T17:24:01.978Z,20.30
2017-05-22T17:26:30.356Z,20.30
2017-05-22T17:28:58.739Z,20.30
2017-05-22T17:31:27.334Z,20.40
2017-05-22T17:33:55.708Z,20.40
2017-05-22T17:36:24.022Z,20.40
2017-05-22T17:38:52.661Z,20.40
2017-05-22T17:41:20.982Z,20.40
2017-05-22T17:43:49.291Z,20.40
2017-05-22T17:46:18.083Z,20.40
2017-05-22T17:48:46.799Z,20.40
2017-05-22T17:51:15.099Z,20.40
2017-05-22T17:53:43.750Z,20.40
2017-05-22T17:56:12.806Z,20.40
2017-05-22T17:58:41.127Z,20.40
2017-05-22T18:01:08.997Z,20.40
2017-05-22T18:03:37.297Z,20.40
2017-05-22T18:06:05.586Z,20.40
2017-05-22T18:08:34.236Z,20.40
2017-05-22T18:11:01.782Z,20.40
2017-05-22T18:13:30.074Z,20.40
2017-05-22T18:15:58.629Z,20.40
2017-05-22T18:18:26.920Z,20.40
2017-05-22T18:20:55.237Z,20.40
2017-05-22T18:23:23.877Z,20.40
2017-05-22T18:25:52.171Z,20.40
2017-05-22T18:28:20.481Z,20.40
2017-05-22T18:30:49.115Z,20.40
2017-05-22T18:33:17.418Z,20.40
2017-05-22T18:35:45.706Z,20.40
2017-05-22T18:38:14.366Z,20.40
2017-05-22T18:40:42.669Z,20.40
2017-05-22T18:43:10.976Z,20.40
2017-05-22T18:45:39.597Z,20.40
2017-05-22T18:48:07.985Z,20.40
2017-05-22T18:50:36.290Z,20.30
2017-05-22T18:53:04.880Z,20.30
2017-05-22T18:55:33.179Z,20.30
2017-05-22T18:58:01.937Z,20.30
2017-05-22T19:00:30.877Z,20.30
2017-05-22T19:02:59.184Z,20.30
2017-05-22T19:05:27.475Z,20.30
2017-05-22T19:07:56.126Z,20.30
2017-05-22T19:10:24.445Z,20.30
2017-05-22T19:12:52.752Z,20.30
2017-05-22T19:15:21.360Z,20.30
2017-05-22T19:17:49.777Z,20.20
2017-05-22T19:20:18.219Z,20.20
2017-05-22T19:22:46.817Z,20.20
2017-05-22T19:25:15.119Z,20.20
2017-05-22T19:27:43.429Z,20.20
2017-05-22T19:30:11.975Z,20.20
2017-05-22T19:32:40.272Z,20.30
2017-05-22T19:35:08.626Z,20.20
2017-05-22T19:37:37.272Z,20.20
2017-05-22T19:40:05.565Z,20.20
2017-05-22T19:42:33.870Z,20.20
2017-05-22T19:45:02.493Z,20.20
2017-05-22T19:47:30.803Z,20.20
2017-05-22T19:49:59.121Z,20.20
2017-05-22T19:52:27.772Z,20.20
2017-05-22T19:54:56.099Z,20.20
2017-05-22T19:57:24.392Z,20.20
2017-05-22T19:59:52.998Z,20.20
2017-05-22T20:02:21.360Z,20.20
2017-05-22T20:04:49.695Z,20.20
2017-05-22T20:07:18.229Z,20.20
2017-05-22T20:09:46.528Z,20.20
2017-05-22T20:12:14.829Z,20.20
2017-05-22T20:14:43.450Z,20.20
2017-05-22T20:17:11.754Z,20.20
2017-05-22T20:19:40.085Z,20.20
2017-05-22T20:22:08.705Z,20.20
2017-05-22T20:24:37.194Z,20.20
2017-05-22T20:27:05.481Z,20.20
2017-05-22T20:29:34.159Z,20.20
2017-05-22T20:32:02.487Z,20.20
2017-05-22T20:34:30.905Z,20.20
2017-05-22T20:36:59.580Z,20.20
2017-05-22T20:39:27.893Z,20.20
2017-05-22T20:41:56.202Z,20.20
2017-05-22T20:44:24.736Z,20.20
2017-05-22T20:46:53.053Z,20.20
2017-05-22T20:49:21.342Z,20.20
2017-05-22T20:51:50.065Z,20.20
2017-05-22T20:54:18.360Z,20.20
2017-05-22T20:56:46.811Z,20.20
2017-05-22T20:59:15.713Z,20.20
2017-05-22T21:01:44.053Z,20.10
2017-05-22T21:04:12.366Z,20.10
2017-05-22T21:06:40.925Z,20.10
2017-05-22T21:09:09.225Z,20.20
2017-05-22T21:11:37.717Z,20.10
2017-05-22T21:14:06.375Z,20.10
2017-05-22T21:16:34.678Z,20.10
2017-05-22T21:19:03.141Z,20.10
2017-05-22T21:21:31.825Z,20.10
2017-05-22T21:24:00.313Z,20.10
2017-05-22T21:26:28.648Z,20.10
2017-05-22T21:28:57.268Z,20.10
2017-05-22T21:31:25.573Z,20.10
2017-05-22T21:33:53.868Z,20.10
2017-05-22T21:36:22.484Z,20.10
2017-05-22T21:38:50.795Z,20.10
2017-05-22T21:41:19.098Z,20.10
2017-05-22T21:43:47.753Z,20.10
2017-05-22T21:46:16.129Z,20.10
2017-05-22T21:48:44.424Z,20.10
2017-05-22T21:51:12.978Z,20.10
2017-05-22T21:53:41.294Z,20.10
2017-05-22T21:56:09.595Z,20.10
2017-05-22T21:58:38.244Z,20.10
2017-05-22T22:01:06.582Z,20.10
2017-05-22T22:03:35.179Z,20.10
2017-05-22T22:06:03.866Z,20.10
2017-05-22T22:08:32.193Z,20.10
2017-05-22T22:11:00.496Z,20.10
2017-05-22T22:13:28.996Z,20.10
2017-05-22T22:15:57.277Z,20.10
2017-05-22T22:18:25.655Z,20.10
2017-05-22T22:20:54.336Z,20.10
2017-05-22T22:23:22.651Z,20.10
2017-05-22T22:25:50.976Z,20.10
2017-05-22T22:28:19.571Z,20.10
2017-05-22T22:30:47.856Z,20.10
2017-05-22T22:33:16.150Z,20.10
2017-05-22T22:35:44.000Z,20.10
2017-05-22T22:38:12.292Z,20.10
2017-05-22T22:40:40.577Z,20.10
2017-05-22T22:43:09.228Z,20.10
2017-05-22T22:45:37.518Z,20.10
2017-05-22T22:48:05.802Z,20.00
2017-05-22T22:50:34.463Z,20.00
2017-05-22T22:53:02.753Z,20.00
2017-05-22T22:55:31.244Z,20.00
2017-05-22T22:57:59.920Z,20.00
2017-05-22T23:00:28.392Z,20.10
2017-05-22T23:02:56.879Z,20.10
2017-05-22T23:05:25.416Z,20.00
2017-05-22T23:07:53.850Z,20.10
2017-05-22T23:10:22.143Z,20.00
2017-05-22T23:12:50.785Z,20.10
2017-05-22T23:15:19.066Z,20.00
2017-05-22T23:17:47.344Z,20.10
2017-05-22T23:20:16.027Z,20.00
2017-05-22T23:22:44.300Z,20.00
2017-05-22T23:25:12.578Z,20.10
2017-05-22T23:27:41.290Z,20.10
2017-05-22T23:30:09.594Z,20.00
2017-05-22T23:32:38.024Z,20.00
2017-05-22T23:35:06.540Z,20.00
2017-05-22T23:37:34.841Z,20.00
2017-05-22T23:40:03.123Z,20.00
2017-05-22T23:42:31.735Z,20.00
2017-05-22T23:45:00.031Z,20.00
2017-05-22T23:47:28.380Z,20.00
2017-05-22T23:49:56.971Z,20.00
2017-05-22T23:52:25.256Z,20.00
2017-05-22T23:54:53.563Z,20.00
2017-05-22T23:57:22.219Z,20.00
2017-05-22T23:59:50.625Z,20.00
